DLH153 LIMF-EDDM
Flight info
| Callsign | DLH153 |
|---|---|
| Flight time | 0h 51m |
| Altitude | 34000 |
| Route | MMP DCT ABESI DCT NUNRI/N0456F330 T103 BETOS BETOS1A |
| Aircraft | A346/H-SDE2E3FGHIJ3J4J5M1RWXY/LB1D1 |
Departure
| Time | 2026-05-06 16:07 |
|---|---|
| Airport | Turin Airport (LIMF) |
Arrival
| Time | 2026-05-06 16:58 |
|---|---|
| Airport | Munich Airport (EDDM) |
| Time | Latitude | Longitude | Altitude | Speed | Heading |
|---|---|---|---|---|---|
| 2026-05-06 15:37 | 45.19170 | 7.64554 | 994 ft | 0 kts | 256° |
| 2026-05-06 15:58 | 45.19176 | 7.64585 | 1000 ft | 4 kts | 251° |
| 2026-05-06 15:58 | 45.19183 | 7.64616 | 995 ft | 4 kts | 248° |
| 2026-05-06 15:58 | 45.19195 | 7.64644 | 999 ft | 4 kts | 223° |
| 2026-05-06 15:59 | 45.19215 | 7.64661 | 996 ft | 4 kts | 197° |
| 2026-05-06 15:59 | 45.19240 | 7.64667 | 1001 ft | 4 kts | 183° |
| 2026-05-06 15:59 | 45.19260 | 7.64668 | 1000 ft | 1 kts | 182° |
| 2026-05-06 15:59 | 45.19263 | 7.64668 | 1000 ft | 0 kts | 182° |
| 2026-05-06 16:03 | 45.19252 | 7.64667 | 1000 ft | 5 kts | 182° |
| 2026-05-06 16:03 | 45.19184 | 7.64664 | 997 ft | 14 kts | 182° |
| 2026-05-06 16:03 | 45.19077 | 7.64658 | 996 ft | 17 kts | 182° |
| 2026-05-06 16:03 | 45.18950 | 7.64651 | 999 ft | 20 kts | 182° |
| 2026-05-06 16:04 | 45.18805 | 7.64642 | 998 ft | 22 kts | 182° |
| 2026-05-06 16:04 | 45.18677 | 7.64642 | 995 ft | 8 kts | 162° |
| 2026-05-06 16:04 | 45.18675 | 7.64644 | 995 ft | 0 kts | 159° |
| 2026-05-06 16:05 | 45.18667 | 7.64648 | 996 ft | 3 kts | 158° |
| 2026-05-06 16:05 | 45.18643 | 7.64673 | 999 ft | 6 kts | 134° |
| 2026-05-06 16:05 | 45.18625 | 7.64746 | 993 ft | 10 kts | 98° |
| 2026-05-06 16:05 | 45.18649 | 7.64858 | 994 ft | 14 kts | 36° |
| 2026-05-06 16:06 | 45.18735 | 7.64877 | 994 ft | 13 kts | 5° |
| 2026-05-06 16:06 | 45.19019 | 7.64895 | 991 ft | 73 kts | 2° |
| 2026-05-06 16:06 | 45.19735 | 7.64942 | 990 ft | 132 kts | 2° |
| 2026-05-06 16:06 | 45.20815 | 7.65015 | 1038 ft | 174 kts | 2° |
| 2026-05-06 16:07 | 45.22042 | 7.65119 | 1628 ft | 177 kts | 2° |
| 2026-05-06 16:07 | 45.23286 | 7.65210 | 2270 ft | 182 kts | 2° |
| 2026-05-06 16:07 | 45.24563 | 7.65288 | 2899 ft | 186 kts | 2° |
| 2026-05-06 16:07 | 45.25905 | 7.65403 | 3330 ft | 200 kts | 10° |
| 2026-05-06 16:08 | 45.27142 | 7.66342 | 3758 ft | 212 kts | 50° |
| 2026-05-06 16:08 | 45.27698 | 7.68318 | 4164 ft | 226 kts | 85° |
| 2026-05-06 16:08 | 45.27371 | 7.70584 | 4467 ft | 248 kts | 116° |
| 2026-05-06 16:08 | 45.26604 | 7.72895 | 4909 ft | 267 kts | 111° |
| 2026-05-06 16:09 | 45.26002 | 7.75418 | 4957 ft | 271 kts | 108° |
| 2026-05-06 16:09 | 45.25437 | 7.77991 | 5311 ft | 281 kts | 109° |
| 2026-05-06 16:09 | 45.24681 | 7.80536 | 6344 ft | 277 kts | 119° |
| 2026-05-06 16:09 | 45.23674 | 7.82867 | 7317 ft | 277 kts | 126° |
| 2026-05-06 16:10 | 45.22560 | 7.85133 | 8166 ft | 283 kts | 127° |
| 2026-05-06 16:10 | 45.21400 | 7.87433 | 9027 ft | 289 kts | 128° |
| 2026-05-06 16:10 | 45.20218 | 7.89773 | 9894 ft | 295 kts | 128° |
| 2026-05-06 16:10 | 45.19006 | 7.92175 | 10593 ft | 306 kts | 128° |
| 2026-05-06 16:11 | 45.17733 | 7.94698 | 11101 ft | 324 kts | 128° |
| 2026-05-06 16:11 | 45.16426 | 7.97422 | 11575 ft | 343 kts | 123° |
| 2026-05-06 16:11 | 45.15311 | 8.00529 | 12022 ft | 364 kts | 115° |
| 2026-05-06 16:11 | 45.14514 | 8.04036 | 12518 ft | 384 kts | 102° |
| 2026-05-06 16:12 | 45.14593 | 8.07888 | 13089 ft | 401 kts | 77° |
| 2026-05-06 16:12 | 45.15816 | 8.11448 | 13914 ft | 406 kts | 52° |
| 2026-05-06 16:12 | 45.17920 | 8.14098 | 14747 ft | 408 kts | 32° |
| 2026-05-06 16:12 | 45.20388 | 8.16249 | 15546 ft | 413 kts | 31° |
| 2026-05-06 16:13 | 45.22856 | 8.18402 | 16228 ft | 420 kts | 31° |
| 2026-05-06 16:13 | 45.25352 | 8.20607 | 16940 ft | 425 kts | 31° |
| 2026-05-06 16:13 | 45.27873 | 8.22860 | 17680 ft | 431 kts | 31° |
| 2026-05-06 16:13 | 45.30421 | 8.25151 | 18381 ft | 436 kts | 32° |
| 2026-05-06 16:14 | 45.33003 | 8.27487 | 18965 ft | 443 kts | 32° |
| 2026-05-06 16:14 | 45.35621 | 8.29864 | 19539 ft | 449 kts | 32° |
| 2026-05-06 16:14 | 45.38274 | 8.32280 | 20109 ft | 456 kts | 32° |
| 2026-05-06 16:14 | 45.40961 | 8.34729 | 20683 ft | 462 kts | 32° |
| 2026-05-06 16:15 | 45.43687 | 8.37216 | 21269 ft | 468 kts | 32° |
| 2026-05-06 16:15 | 45.46442 | 8.39734 | 21857 ft | 474 kts | 32° |
| 2026-05-06 16:15 | 45.49238 | 8.42288 | 22434 ft | 479 kts | 32° |
| 2026-05-06 16:15 | 45.52062 | 8.44874 | 22974 ft | 485 kts | 32° |
| 2026-05-06 16:16 | 45.54918 | 8.47493 | 23485 ft | 491 kts | 32° |
| 2026-05-06 16:16 | 45.57807 | 8.50147 | 23938 ft | 497 kts | 32° |
| 2026-05-06 16:16 | 45.60730 | 8.52834 | 24408 ft | 502 kts | 32° |
| 2026-05-06 16:16 | 45.63680 | 8.55548 | 24901 ft | 506 kts | 32° |
| 2026-05-06 16:17 | 45.66602 | 8.58240 | 25489 ft | 507 kts | 32° |
| 2026-05-06 16:17 | 45.69563 | 8.60971 | 26187 ft | 505 kts | 32° |
| 2026-05-06 16:17 | 45.72515 | 8.63699 | 26918 ft | 505 kts | 32° |
| 2026-05-06 16:17 | 45.75465 | 8.66431 | 27554 ft | 505 kts | 32° |
| 2026-05-06 16:18 | 45.78413 | 8.69168 | 28215 ft | 505 kts | 32° |
| 2026-05-06 16:18 | 45.81368 | 8.71910 | 28885 ft | 505 kts | 32° |
| 2026-05-06 16:18 | 45.84317 | 8.74648 | 29554 ft | 505 kts | 32° |
| 2026-05-06 16:18 | 45.87276 | 8.77393 | 30110 ft | 506 kts | 32° |
| 2026-05-06 16:19 | 45.90239 | 8.80150 | 30681 ft | 506 kts | 32° |
| 2026-05-06 16:19 | 45.93191 | 8.82904 | 31256 ft | 506 kts | 32° |
| 2026-05-06 16:19 | 45.96138 | 8.85659 | 31818 ft | 505 kts | 32° |
| 2026-05-06 16:19 | 45.99086 | 8.88417 | 32367 ft | 505 kts | 32° |
| 2026-05-06 16:20 | 46.02032 | 8.91176 | 32834 ft | 507 kts | 32° |
| 2026-05-06 16:20 | 46.04992 | 8.93949 | 33259 ft | 509 kts | 32° |
| 2026-05-06 16:20 | 46.07975 | 8.96749 | 33648 ft | 512 kts | 32° |
| 2026-05-06 16:20 | 46.10984 | 8.99511 | 33910 ft | 514 kts | 29° |
| 2026-05-06 16:21 | 46.17308 | 9.04260 | 33885 ft | 511 kts | 20° |
| 2026-05-06 16:21 | 46.23978 | 9.07748 | 33894 ft | 508 kts | 13° |
| 2026-05-06 16:22 | 46.30768 | 9.10553 | 33914 ft | 507 kts | 12° |
| 2026-05-06 16:22 | 46.37565 | 9.13333 | 33893 ft | 507 kts | 12° |
| 2026-05-06 16:23 | 46.44314 | 9.16142 | 33906 ft | 508 kts | 12° |
| 2026-05-06 16:23 | 46.51099 | 9.18992 | 33903 ft | 508 kts | 12° |
| 2026-05-06 16:24 | 46.57907 | 9.21862 | 33903 ft | 507 kts | 12° |
| 2026-05-06 16:24 | 46.64676 | 9.24723 | 33920 ft | 505 kts | 12° |
| 2026-05-06 16:25 | 46.71423 | 9.27584 | 33884 ft | 505 kts | 12° |
| 2026-05-06 16:25 | 46.78163 | 9.30449 | 33881 ft | 504 kts | 13° |
| 2026-05-06 16:26 | 46.84920 | 9.33325 | 33880 ft | 502 kts | 13° |
| 2026-05-06 16:26 | 46.91646 | 9.36202 | 33887 ft | 502 kts | 13° |
| 2026-05-06 16:27 | 46.98347 | 9.39070 | 33877 ft | 502 kts | 13° |
| 2026-05-06 16:27 | 47.05032 | 9.41943 | 33880 ft | 500 kts | 13° |
| 2026-05-06 16:28 | 47.11714 | 9.44820 | 33885 ft | 500 kts | 13° |
| 2026-05-06 16:28 | 47.18423 | 9.47717 | 33875 ft | 500 kts | 13° |
| 2026-05-06 16:29 | 47.25039 | 9.50580 | 33883 ft | 497 kts | 13° |
| 2026-05-06 16:29 | 47.31680 | 9.53463 | 33885 ft | 497 kts | 13° |
| 2026-05-06 16:30 | 47.37241 | 9.55883 | 33888 ft | 497 kts | 13° |
| 2026-05-06 16:30 | 47.44931 | 9.59236 | 33779 ft | 492 kts | 13° |
| 2026-05-06 16:31 | 47.48212 | 9.60672 | 33007 ft | 495 kts | 13° |
| 2026-05-06 16:31 | 47.51534 | 9.62236 | 31883 ft | 508 kts | 21° |
| 2026-05-06 16:31 | 47.54571 | 9.64981 | 30834 ft | 518 kts | 42° |
| 2026-05-06 16:31 | 47.56876 | 9.69071 | 30045 ft | 516 kts | 63° |
| 2026-05-06 16:32 | 47.58178 | 9.73959 | 29126 ft | 507 kts | 83° |
| 2026-05-06 16:32 | 47.58393 | 9.79085 | 28325 ft | 494 kts | 99° |
| 2026-05-06 16:32 | 47.58117 | 9.84128 | 27735 ft | 488 kts | 101° |
| 2026-05-06 16:32 | 47.57823 | 9.89140 | 27027 ft | 487 kts | 100° |
| 2026-05-06 16:33 | 47.57550 | 9.94152 | 26278 ft | 488 kts | 99° |
| 2026-05-06 16:33 | 47.57304 | 9.99168 | 25566 ft | 487 kts | 99° |
| 2026-05-06 16:33 | 47.57077 | 10.04216 | 24956 ft | 483 kts | 98° |
| 2026-05-06 16:34 | 47.56660 | 10.13939 | 24381 ft | 460 kts | 98° |
| 2026-05-06 16:34 | 47.56460 | 10.18641 | 24156 ft | 456 kts | 97° |
| 2026-05-06 16:34 | 47.56260 | 10.23310 | 23908 ft | 453 kts | 98° |
| 2026-05-06 16:34 | 47.56058 | 10.27901 | 23668 ft | 450 kts | 97° |
| 2026-05-06 16:35 | 47.55848 | 10.32591 | 23436 ft | 448 kts | 97° |
| 2026-05-06 16:35 | 47.55644 | 10.37127 | 23163 ft | 446 kts | 97° |
| 2026-05-06 16:35 | 47.55434 | 10.41705 | 22872 ft | 444 kts | 97° |
| 2026-05-06 16:35 | 47.55223 | 10.46289 | 22594 ft | 442 kts | 97° |
| 2026-05-06 16:36 | 47.55058 | 10.50834 | 22281 ft | 442 kts | 93° |
| 2026-05-06 16:36 | 47.55433 | 10.55384 | 22006 ft | 449 kts | 79° |
| 2026-05-06 16:36 | 47.56485 | 10.59755 | 21719 ft | 452 kts | 66° |
| 2026-05-06 16:36 | 47.58031 | 10.63826 | 21462 ft | 452 kts | 61° |
| 2026-05-06 16:37 | 47.59670 | 10.67799 | 21199 ft | 451 kts | 60° |
| 2026-05-06 16:37 | 47.61314 | 10.71757 | 20928 ft | 449 kts | 60° |
| 2026-05-06 16:37 | 47.62932 | 10.75706 | 20614 ft | 447 kts | 61° |
| 2026-05-06 16:37 | 47.64528 | 10.79653 | 20208 ft | 444 kts | 61° |
| 2026-05-06 16:38 | 47.66104 | 10.83582 | 19790 ft | 441 kts | 61° |
| 2026-05-06 16:38 | 47.67788 | 10.87368 | 19362 ft | 438 kts | 54° |
| 2026-05-06 16:38 | 47.69793 | 10.90762 | 18932 ft | 436 kts | 46° |
| 2026-05-06 16:38 | 47.72066 | 10.93734 | 18500 ft | 433 kts | 40° |
| 2026-05-06 16:39 | 47.74413 | 10.96510 | 18032 ft | 429 kts | 39° |
| 2026-05-06 16:39 | 47.76754 | 10.99236 | 17555 ft | 424 kts | 39° |
| 2026-05-06 16:39 | 47.79052 | 11.01923 | 17078 ft | 418 kts | 39° |
| 2026-05-06 16:39 | 47.81317 | 11.04603 | 16716 ft | 414 kts | 39° |
| 2026-05-06 16:40 | 47.83560 | 11.07270 | 16291 ft | 411 kts | 39° |
| 2026-05-06 16:40 | 47.85786 | 11.09923 | 15881 ft | 408 kts | 39° |
| 2026-05-06 16:40 | 47.87998 | 11.12557 | 15465 ft | 405 kts | 38° |
| 2026-05-06 16:40 | 47.90199 | 11.15172 | 15061 ft | 403 kts | 38° |
| 2026-05-06 16:41 | 47.92382 | 11.17770 | 14647 ft | 400 kts | 38° |
| 2026-05-06 16:41 | 47.94552 | 11.20352 | 14238 ft | 397 kts | 38° |
| 2026-05-06 16:41 | 47.96705 | 11.22918 | 13831 ft | 395 kts | 38° |
| 2026-05-06 16:41 | 47.98846 | 11.25475 | 13364 ft | 392 kts | 38° |
| 2026-05-06 16:42 | 48.00958 | 11.28000 | 13084 ft | 384 kts | 39° |
| 2026-05-06 16:42 | 48.03005 | 11.30453 | 12980 ft | 370 kts | 39° |
| 2026-05-06 16:42 | 48.04986 | 11.32831 | 12852 ft | 357 kts | 40° |
| 2026-05-06 16:42 | 48.06780 | 11.35324 | 12753 ft | 347 kts | 47° |
| 2026-05-06 16:43 | 48.08353 | 11.38133 | 12772 ft | 356 kts | 54° |
| 2026-05-06 16:43 | 48.09820 | 11.41142 | 12794 ft | 358 kts | 56° |
| 2026-05-06 16:43 | 48.11204 | 11.44245 | 12791 ft | 357 kts | 64° |
| 2026-05-06 16:43 | 48.12122 | 11.47672 | 12800 ft | 354 kts | 78° |
| 2026-05-06 16:44 | 48.12535 | 11.51288 | 12813 ft | 351 kts | 86° |
| 2026-05-06 16:44 | 48.12803 | 11.54871 | 12814 ft | 351 kts | 87° |
| 2026-05-06 16:44 | 48.13064 | 11.58647 | 13041 ft | 373 kts | 87° |
| 2026-05-06 16:44 | 48.13340 | 11.62514 | 13883 ft | 371 kts | 86° |
| 2026-05-06 16:45 | 48.13625 | 11.66300 | 14218 ft | 360 kts | 86° |
| 2026-05-06 16:45 | 48.13909 | 11.69984 | 13955 ft | 354 kts | 86° |
| 2026-05-06 16:45 | 48.14042 | 11.73675 | 13280 ft | 356 kts | 98° |
| 2026-05-06 16:45 | 48.13615 | 11.77387 | 12380 ft | 363 kts | 105° |
| 2026-05-06 16:46 | 48.13023 | 11.81118 | 11482 ft | 372 kts | 107° |
| 2026-05-06 16:46 | 48.12391 | 11.84899 | 10838 ft | 373 kts | 107° |
| 2026-05-06 16:46 | 48.11754 | 11.88669 | 10340 ft | 369 kts | 107° |
| 2026-05-06 16:46 | 48.11134 | 11.92342 | 10105 ft | 358 kts | 107° |
| 2026-05-06 16:47 | 48.10539 | 11.95885 | 9537 ft | 343 kts | 107° |
| 2026-05-06 16:47 | 48.09972 | 11.99266 | 9095 ft | 325 kts | 107° |
| 2026-05-06 16:47 | 48.09439 | 12.02458 | 8687 ft | 308 kts | 108° |
| 2026-05-06 16:47 | 48.08957 | 12.05502 | 8354 ft | 293 kts | 107° |
| 2026-05-06 16:48 | 48.08500 | 12.08429 | 7832 ft | 285 kts | 107° |
| 2026-05-06 16:48 | 48.08045 | 12.11295 | 7224 ft | 281 kts | 107° |
| 2026-05-06 16:48 | 48.07580 | 12.14131 | 6630 ft | 277 kts | 107° |
| 2026-05-06 16:48 | 48.07404 | 12.16985 | 5955 ft | 280 kts | 80° |
| 2026-05-06 16:49 | 48.08271 | 12.19555 | 5320 ft | 280 kts | 46° |
| 2026-05-06 16:49 | 48.09879 | 12.21120 | 4990 ft | 278 kts | 19° |
| 2026-05-06 16:49 | 48.11800 | 12.21521 | 5000 ft | 282 kts | 355° |
| 2026-05-06 16:49 | 48.13742 | 12.21046 | 5388 ft | 283 kts | 350° |
| 2026-05-06 16:50 | 48.15643 | 12.20457 | 6430 ft | 272 kts | 341° |
| 2026-05-06 16:50 | 48.17357 | 12.19493 | 7084 ft | 254 kts | 334° |
| 2026-05-06 16:50 | 48.18413 | 12.18804 | 7070 ft | 246 kts | 333° |
| 2026-05-06 16:50 | 48.19977 | 12.17755 | 6597 ft | 247 kts | 334° |
| 2026-05-06 16:51 | 48.21554 | 12.16720 | 6106 ft | 247 kts | 335° |
| 2026-05-06 16:51 | 48.23128 | 12.15721 | 5640 ft | 245 kts | 336° |
| 2026-05-06 16:51 | 48.25214 | 12.14433 | 5008 ft | 244 kts | 338° |
| 2026-05-06 16:51 | 48.26271 | 12.13788 | 4704 ft | 242 kts | 338° |
| 2026-05-06 16:52 | 48.27813 | 12.12852 | 4453 ft | 235 kts | 339° |
| 2026-05-06 16:52 | 48.29323 | 12.11943 | 4517 ft | 233 kts | 339° |
| 2026-05-06 16:52 | 48.30783 | 12.11064 | 4514 ft | 218 kts | 339° |
| 2026-05-06 16:52 | 48.32138 | 12.10249 | 4472 ft | 203 kts | 339° |
| 2026-05-06 16:53 | 48.33413 | 12.09480 | 4475 ft | 194 kts | 339° |
| 2026-05-06 16:53 | 48.34656 | 12.08727 | 4473 ft | 192 kts | 339° |
| 2026-05-06 16:53 | 48.35795 | 12.07726 | 4452 ft | 192 kts | 311° |
| 2026-05-06 16:53 | 48.36310 | 12.05883 | 4475 ft | 195 kts | 277° |
| 2026-05-06 16:54 | 48.36306 | 12.03843 | 4495 ft | 195 kts | 266° |
| 2026-05-06 16:54 | 48.36175 | 12.01849 | 4319 ft | 191 kts | 263° |
| 2026-05-06 16:54 | 48.36011 | 11.99874 | 4050 ft | 182 kts | 263° |
| 2026-05-06 16:54 | 48.35856 | 11.98046 | 3800 ft | 173 kts | 263° |
| 2026-05-06 16:55 | 48.35709 | 11.96258 | 3587 ft | 171 kts | 264° |
| 2026-05-06 16:55 | 48.35570 | 11.94501 | 3369 ft | 165 kts | 264° |
| 2026-05-06 16:55 | 48.35439 | 11.92818 | 3155 ft | 160 kts | 265° |
| 2026-05-06 16:55 | 48.35318 | 11.91154 | 2942 ft | 159 kts | 265° |
| 2026-05-06 16:56 | 48.35192 | 11.89503 | 2734 ft | 158 kts | 264° |
| 2026-05-06 16:56 | 48.35060 | 11.87866 | 2513 ft | 156 kts | 264° |
| 2026-05-06 16:56 | 48.34932 | 11.86243 | 2306 ft | 156 kts | 264° |
| 2026-05-06 16:56 | 48.34809 | 11.84623 | 2067 ft | 156 kts | 263° |
| 2026-05-06 16:57 | 48.34664 | 11.83013 | 1862 ft | 155 kts | 263° |
| 2026-05-06 16:57 | 48.34551 | 11.81418 | 1643 ft | 149 kts | 265° |
| 2026-05-06 16:57 | 48.34442 | 11.79919 | 1494 ft | 133 kts | 263° |
| 2026-05-06 16:57 | 48.34363 | 11.78932 | 1480 ft | 56 kts | 263° |
| 2026-05-06 16:58 | 48.34327 | 11.78474 | 1490 ft | 40 kts | 263° |
| 2026-05-06 16:58 | 48.34309 | 11.78159 | 1483 ft | 25 kts | 271° |
| 2026-05-06 16:58 | 48.34341 | 11.77910 | 1482 ft | 24 kts | 291° |
| 2026-05-06 16:58 | 48.34406 | 11.77692 | 1486 ft | 15 kts | 292° |
| 2026-05-06 16:59 | 48.34413 | 11.77669 | 1481 ft | 1 kts | 292° |
| 2026-05-06 16:59 | 48.34419 | 11.77643 | 1485 ft | 4 kts | 292° |
| 2026-05-06 16:59 | 48.34434 | 11.77590 | 1480 ft | 7 kts | 292° |
| 2026-05-06 16:59 | 48.34456 | 11.77511 | 1480 ft | 9 kts | 296° |
| 2026-05-06 17:00 | 48.34512 | 11.77456 | 1477 ft | 11 kts | 336° |
| 2026-05-06 17:00 | 48.34562 | 11.77432 | 1482 ft | 6 kts | 348° |
| 2026-05-06 17:00 | 48.34613 | 11.77457 | 1483 ft | 12 kts | 51° |
| 2026-05-06 17:00 | 48.34643 | 11.77622 | 1489 ft | 21 kts | 84° |
| 2026-05-06 17:01 | 48.34660 | 11.77858 | 1494 ft | 21 kts | 84° |
| 2026-05-06 17:01 | 48.34677 | 11.78090 | 1494 ft | 23 kts | 83° |
| 2026-05-06 17:01 | 48.34697 | 11.78343 | 1481 ft | 25 kts | 83° |
| 2026-05-06 17:01 | 48.34718 | 11.78607 | 1488 ft | 26 kts | 83° |
| 2026-05-06 17:02 | 48.34738 | 11.78857 | 1482 ft | 21 kts | 83° |
| 2026-05-06 17:02 | 48.34756 | 11.79091 | 1487 ft | 23 kts | 84° |
| 2026-05-06 17:02 | 48.34773 | 11.79333 | 1484 ft | 15 kts | 83° |
| 2026-05-06 17:02 | 48.34781 | 11.79438 | 1491 ft | 3 kts | 83° |